Hlavní strana
METAR-TAF:

METAR-TAF

Letiště :

Letiště Iqaluit

Iqaluit, Nunavut, Kanada

zeměpisná šířka: 63-45N, zeměpisná délka: 068-33W, výška: 34 m

Aktuální stav počasí

Zpráva byla vytvořena před 33 minutami, v 21:00 UTC
Severoseverozápadní vítr 20 kt s nárazy do 27 kt
Teplota -17°C
Vlhkost vzduchu 65%
Tlak 1030 hPa
Viditelnost: 48.3 km
Jasno

METAR: CYFB 042100Z 33020G27KT 30SM SKC M17/M22 A3041 RMK SLP304

Čas: 17:33 (21:33 UTC)

Předpověď počasí

Zpráva byla vytvořena před 3 hodinami a 55 minutami, v 17:38 UTC
Předpověď platná od 04 v 18 UTC do 05 v 18 UTC
Severozápadní vítr 20 kt s nárazy do 30 kt
Viditelnost: 10 km
Jasno
Změna
od 05 v 08 UTC do 05 v 10 UTC
Severoseverozápadní vítr 10 kt

TAF: CYFB 041738Z 0418/0518 32020G30KT P6SM SKC BECMG 0508/0510 33010KT RMK NXT FCST BY 050000Z

Stav a předpovědi počasí z více než 4 000 letišť (zprávy METAR a TAF).

Červené a žluté tečky na mapě představují dostupné meteorologické stanice.

Když kurzor umístíte na tečku, zobrazí se název stanice.

Pak kliknutím zobrazíte stav a předpověď počasí.

Chcete-li změnit mapu, kliknutím na zelené tlačítko se znaménkem +mapu přiblížíte, kliknutím na zelené tlačítko se znaménkem – mapu oddálíte a kliknutím na zelené šipky přejdete na sousední mapy.


METAR-TAF: